createdAt,value
2023-03-28T00:12:46.110Z,54.73
2023-03-28T00:27:48.724Z,56.33
2023-03-28T00:42:51.534Z,58.30
2023-03-28T00:57:55.830Z,56.63
2023-03-28T01:12:59.224Z,57.29
2023-03-28T01:28:32.197Z,60.04
2023-03-28T01:44:07.868Z,56.32
2023-03-28T01:59:42.219Z,55.65
2023-03-28T02:14:48.175Z,58.25
2023-03-28T02:29:54.407Z,57.76
2023-03-28T02:45:14.092Z,57.68
2023-03-28T03:00:19.930Z,56.69
2023-03-28T03:15:22.580Z,57.94
2023-03-28T03:30:25.278Z,57.25
2023-03-28T03:45:28.232Z,57.46
2023-03-28T04:00:31.012Z,57.54
2023-03-28T04:15:33.579Z,54.88
2023-03-28T04:30:38.237Z,60.41
2023-03-28T04:45:40.855Z,53.72
2023-03-28T05:00:45.934Z,55.90
2023-03-28T05:15:48.525Z,57.18
2023-03-28T05:30:51.554Z,55.99
2023-03-28T05:45:54.243Z,55.58
2023-03-28T06:00:58.022Z,57.36
2023-03-28T06:16:01.070Z,59.13
2023-03-28T06:31:04.007Z,59.42
2023-03-28T06:46:07.224Z,59.02
2023-03-28T07:01:09.985Z,55.79
2023-03-28T07:16:14.901Z,54.75
2023-03-28T07:31:18.394Z,55.62
2023-03-28T07:46:21.640Z,51.06
2023-03-28T08:01:25.006Z,46.54
2023-03-28T08:16:28.632Z,48.07
2023-03-28T08:31:31.650Z,47.24
2023-03-28T08:46:36.615Z,47.41
2023-03-28T09:01:39.712Z,47.14
2023-03-28T09:17:01.801Z,43.46
2023-03-28T09:32:12.395Z,45.12
2023-03-28T09:47:15.124Z,45.07
2023-03-28T10:02:25.473Z,51.34
2023-03-28T10:17:38.108Z,50.69
2023-03-28T10:32:41.484Z,47.25
2023-03-28T10:47:44.500Z,43.76
2023-03-28T11:03:00.424Z,41.94
2023-03-28T11:18:29.897Z,43.69
2023-03-28T11:33:42.758Z,46.87
2023-03-28T12:16:21.254Z,53.24
2023-03-28T12:31:27.129Z,50.68
2023-03-28T12:46:38.054Z,51.15
2023-03-28T13:01:54.205Z,53.05
2023-03-28T13:17:17.774Z,54.20
2023-03-28T13:32:25.597Z,54.02
2023-03-28T13:47:34.043Z,55.25
2023-03-28T14:02:48.682Z,56.01
2023-03-28T14:17:51.710Z,55.12
2023-03-28T14:33:00.551Z,53.63
2023-03-28T14:48:06.405Z,49.82
2023-03-28T15:03:16.340Z,47.43
2023-03-28T15:18:25.337Z,46.82
2023-03-28T15:33:33.554Z,46.58
2023-03-28T15:48:37.080Z,45.33
2023-03-28T16:03:39.833Z,45.52
2023-03-28T16:18:42.802Z,46.99
2023-03-28T16:33:45.637Z,46.25
2023-03-28T16:48:48.324Z,45.80
2023-03-28T17:03:52.743Z,46.12
2023-03-28T17:18:55.965Z,47.00
2023-03-28T17:34:01.274Z,47.60
2023-03-28T17:49:04.587Z,48.95
2023-03-28T18:18:09.310Z,50.24
2023-03-28T18:33:12.016Z,51.00
2023-03-28T18:48:18.390Z,51.87
2023-03-28T19:03:21.162Z,53.09
2023-03-28T19:18:23.971Z,54.33
2023-03-28T19:33:27.595Z,54.92
2023-03-28T19:48:31.567Z,55.21
2023-03-28T20:03:34.568Z,55.52
2023-03-28T20:18:37.978Z,56.25
2023-03-28T20:33:40.639Z,57.22
2023-03-28T20:48:46.598Z,57.27
2023-03-28T21:03:49.852Z,57.29
2023-03-28T21:18:53.275Z,57.71
2023-03-28T21:33:57.501Z,58.28
2023-03-28T21:49:00.304Z,64.49
2023-03-28T22:04:02.885Z,46.80
2023-03-28T22:19:08.565Z,49.25
2023-03-28T22:34:13.075Z,53.06
2023-03-28T22:49:22.021Z,55.43
2023-03-28T23:04:25.421Z,57.56
2023-03-28T23:19:31.283Z,63.91
2023-03-28T23:34:34.908Z,47.61
2023-03-28T23:49:37.441Z,51.59
